sensor_id;sensor_type;location;lat;lon;timestamp;temperature;humidity
39045;DHT22;52192;52.002;5.956;2023-04-30T00:00:12;11.50;70.70
39045;DHT22;52192;52.002;5.956;2023-04-30T00:02:37;11.50;70.80
39045;DHT22;52192;52.002;5.956;2023-04-30T00:05:04;11.50;70.90
39045;DHT22;52192;52.002;5.956;2023-04-30T00:07:29;11.50;70.90
39045;DHT22;52192;52.002;5.956;2023-04-30T00:09:56;11.40;71.00
39045;DHT22;52192;52.002;5.956;2023-04-30T00:12:22;11.40;71.00
39045;DHT22;52192;52.002;5.956;2023-04-30T00:14:48;11.30;71.00
39045;DHT22;52192;52.002;5.956;2023-04-30T00:17:14;11.30;71.00
39045;DHT22;52192;52.002;5.956;2023-04-30T00:19:40;11.20;71.00
39045;DHT22;52192;52.002;5.956;2023-04-30T00:22:07;11.20;71.10
39045;DHT22;52192;52.002;5.956;2023-04-30T00:24:33;11.20;71.10
39045;DHT22;52192;52.002;5.956;2023-04-30T00:26:58;11.20;71.10
39045;DHT22;52192;52.002;5.956;2023-04-30T00:29:24;11.10;71.10
39045;DHT22;52192;52.002;5.956;2023-04-30T00:31:50;11.10;71.20
39045;DHT22;52192;52.002;5.956;2023-04-30T00:34:16;11.10;71.30
39045;DHT22;52192;52.002;5.956;2023-04-30T00:36:41;11.00;71.30
39045;DHT22;52192;52.002;5.956;2023-04-30T00:39:07;11.00;71.40
39045;DHT22;52192;52.002;5.956;2023-04-30T00:41:34;11.00;71.50
39045;DHT22;52192;52.002;5.956;2023-04-30T00:44:00;11.00;71.60
39045;DHT22;52192;52.002;5.956;2023-04-30T00:46:27;10.90;71.60
39045;DHT22;52192;52.002;5.956;2023-04-30T00:48:53;10.80;71.70
39045;DHT22;52192;52.002;5.956;2023-04-30T00:51:19;10.80;71.80
39045;DHT22;52192;52.002;5.956;2023-04-30T00:53:45;10.80;71.80
39045;DHT22;52192;52.002;5.956;2023-04-30T00:56:12;10.80;72.00
39045;DHT22;52192;52.002;5.956;2023-04-30T00:58:40;10.80;72.10
39045;DHT22;52192;52.002;5.956;2023-04-30T01:01:06;10.80;72.20
39045;DHT22;52192;52.002;5.956;2023-04-30T01:03:32;10.80;72.20
39045;DHT22;52192;52.002;5.956;2023-04-30T01:06:00;10.80;72.90
39045;DHT22;52192;52.002;5.956;2023-04-30T01:08:28;10.80;72.50
39045;DHT22;52192;52.002;5.956;2023-04-30T01:11:11;10.80;72.60
39045;DHT22;52192;52.002;5.956;2023-04-30T01:16:50;10.80;72.60
39045;DHT22;52192;52.002;5.956;2023-04-30T01:19:40;10.80;72.70
39045;DHT22;52192;52.002;5.956;2023-04-30T01:28:02;10.80;72.70
39045;DHT22;52192;52.002;5.956;2023-04-30T01:30:30;10.70;72.60
39045;DHT22;52192;52.002;5.956;2023-04-30T01:32:57;10.70;72.70
39045;DHT22;52192;52.002;5.956;2023-04-30T01:41:25;10.60;72.70
39045;DHT22;52192;52.002;5.956;2023-04-30T01:44:05;10.70;72.70
39045;DHT22;52192;52.002;5.956;2023-04-30T01:46:37;10.60;72.80
39045;DHT22;52192;52.002;5.956;2023-04-30T01:52:02;10.50;73.00
39045;DHT22;52192;52.002;5.956;2023-04-30T01:54:40;10.50;73.10
39045;DHT22;52192;52.002;5.956;2023-04-30T01:57:15;10.40;73.00
39045;DHT22;52192;52.002;5.956;2023-04-30T01:59:42;10.40;73.10
39045;DHT22;52192;52.002;5.956;2023-04-30T02:02:09;10.30;73.10
39045;DHT22;52192;52.002;5.956;2023-04-30T02:04:35;10.40;73.20
39045;DHT22;52192;52.002;5.956;2023-04-30T02:07:01;10.30;73.10
39045;DHT22;52192;52.002;5.956;2023-04-30T02:09:26;10.30;73.10
39045;DHT22;52192;52.002;5.956;2023-04-30T02:11:52;10.30;73.20
39045;DHT22;52192;52.002;5.956;2023-04-30T02:14:17;10.30;73.30
39045;DHT22;52192;52.002;5.956;2023-04-30T02:16:43;10.20;73.40
39045;DHT22;52192;52.002;5.956;2023-04-30T02:19:09;10.20;73.50
39045;DHT22;52192;52.002;5.956;2023-04-30T02:21:35;10.30;73.50
39045;DHT22;52192;52.002;5.956;2023-04-30T02:24:01;10.30;73.50
39045;DHT22;52192;52.002;5.956;2023-04-30T02:26:27;10.20;73.50
39045;DHT22;52192;52.002;5.956;2023-04-30T02:28:52;10.20;73.50
39045;DHT22;52192;52.002;5.956;2023-04-30T02:31:18;10.20;73.50
39045;DHT22;52192;52.002;5.956;2023-04-30T02:33:44;10.20;73.60
39045;DHT22;52192;52.002;5.956;2023-04-30T02:36:09;10.20;74.40
39045;DHT22;52192;52.002;5.956;2023-04-30T02:38:35;10.10;73.90
39045;DHT22;52192;52.002;5.956;2023-04-30T02:41:01;10.20;73.90
39045;DHT22;52192;52.002;5.956;2023-04-30T02:43:27;10.20;73.90
39045;DHT22;52192;52.002;5.956;2023-04-30T02:45:53;10.20;73.90
39045;DHT22;52192;52.002;5.956;2023-04-30T02:48:19;10.20;73.90
39045;DHT22;52192;52.002;5.956;2023-04-30T02:50:44;10.20;73.90
39045;DHT22;52192;52.002;5.956;2023-04-30T02:53:10;10.20;74.00
39045;DHT22;52192;52.002;5.956;2023-04-30T02:55:36;10.20;74.10
39045;DHT22;52192;52.002;5.956;2023-04-30T02:58:01;10.20;74.20
39045;DHT22;52192;52.002;5.956;2023-04-30T03:00:27;10.10;74.20
39045;DHT22;52192;52.002;5.956;2023-04-30T03:02:53;10.20;74.30
39045;DHT22;52192;52.002;5.956;2023-04-30T03:05:18;10.10;74.30
39045;DHT22;52192;52.002;5.956;2023-04-30T03:07:44;10.10;74.40
39045;DHT22;52192;52.002;5.956;2023-04-30T03:10:10;10.10;74.50
39045;DHT22;52192;52.002;5.956;2023-04-30T03:12:35;10.10;74.50
39045;DHT22;52192;52.002;5.956;2023-04-30T03:15:01;10.10;74.70
39045;DHT22;52192;52.002;5.956;2023-04-30T03:17:27;10.00;74.70
39045;DHT22;52192;52.002;5.956;2023-04-30T03:19:52;10.10;74.70
39045;DHT22;52192;52.002;5.956;2023-04-30T03:22:18;10.10;74.60
39045;DHT22;52192;52.002;5.956;2023-04-30T03:24:45;10.00;74.50
39045;DHT22;52192;52.002;5.956;2023-04-30T03:27:11;10.00;74.60
39045;DHT22;52192;52.002;5.956;2023-04-30T03:29:36;10.00;74.60
39045;DHT22;52192;52.002;5.956;2023-04-30T03:32:02;9.90;74.50
39045;DHT22;52192;52.002;5.956;2023-04-30T03:34:28;9.90;74.50
39045;DHT22;52192;52.002;5.956;2023-04-30T03:36:55;9.90;74.50
39045;DHT22;52192;52.002;5.956;2023-04-30T03:39:21;9.90;74.50
39045;DHT22;52192;52.002;5.956;2023-04-30T03:41:47;9.90;74.50
39045;DHT22;52192;52.002;5.956;2023-04-30T03:44:13;9.80;74.40
39045;DHT22;52192;52.002;5.956;2023-04-30T03:46:41;9.80;74.60
39045;DHT22;52192;52.002;5.956;2023-04-30T03:49:08;9.70;74.60
39045;DHT22;52192;52.002;5.956;2023-04-30T03:51:33;9.70;74.70
39045;DHT22;52192;52.002;5.956;2023-04-30T03:54:04;9.70;74.70
39045;DHT22;52192;52.002;5.956;2023-04-30T03:56:31;9.70;74.70
39045;DHT22;52192;52.002;5.956;2023-04-30T03:58:57;9.70;74.70
39045;DHT22;52192;52.002;5.956;2023-04-30T04:01:23;9.70;74.70
39045;DHT22;52192;52.002;5.956;2023-04-30T04:03:49;9.60;74.60
39045;DHT22;52192;52.002;5.956;2023-04-30T04:06:14;9.60;74.70
39045;DHT22;52192;52.002;5.956;2023-04-30T04:08:40;9.60;74.70
39045;DHT22;52192;52.002;5.956;2023-04-30T04:11:09;9.60;74.70
39045;DHT22;52192;52.002;5.956;2023-04-30T04:13:35;9.50;74.80
39045;DHT22;52192;52.002;5.956;2023-04-30T04:16:01;9.60;74.90
39045;DHT22;52192;52.002;5.956;2023-04-30T04:18:27;9.50;74.90
39045;DHT22;52192;52.002;5.956;2023-04-30T04:20:54;9.50;75.00
39045;DHT22;52192;52.002;5.956;2023-04-30T04:23:20;9.50;75.00
39045;DHT22;52192;52.002;5.956;2023-04-30T04:25:46;9.50;75.00
39045;DHT22;52192;52.002;5.956;2023-04-30T04:28:14;9.50;75.10
39045;DHT22;52192;52.002;5.956;2023-04-30T04:30:41;9.50;75.00
39045;DHT22;52192;52.002;5.956;2023-04-30T04:33:06;9.50;75.00
39045;DHT22;52192;52.002;5.956;2023-04-30T04:35:33;9.60;75.00
39045;DHT22;52192;52.002;5.956;2023-04-30T04:37:59;9.60;75.00
39045;DHT22;52192;52.002;5.956;2023-04-30T04:40:25;9.60;74.90
39045;DHT22;52192;52.002;5.956;2023-04-30T04:42:51;9.60;75.00
39045;DHT22;52192;52.002;5.956;2023-04-30T04:45:18;9.60;75.00
39045;DHT22;52192;52.002;5.956;2023-04-30T04:47:45;9.60;75.10
39045;DHT22;52192;52.002;5.956;2023-04-30T04:50:11;9.60;75.10
39045;DHT22;52192;52.002;5.956;2023-04-30T04:52:37;9.60;75.10
39045;DHT22;52192;52.002;5.956;2023-04-30T04:55:04;9.70;75.10
39045;DHT22;52192;52.002;5.956;2023-04-30T04:57:30;9.70;75.10
39045;DHT22;52192;52.002;5.956;2023-04-30T04:59:56;9.70;75.10
39045;DHT22;52192;52.002;5.956;2023-04-30T05:02:21;9.80;75.00
39045;DHT22;52192;52.002;5.956;2023-04-30T05:04:48;9.80;75.00
39045;DHT22;52192;52.002;5.956;2023-04-30T05:07:16;9.90;75.00
39045;DHT22;52192;52.002;5.956;2023-04-30T05:09:43;9.90;74.90
39045;DHT22;52192;52.002;5.956;2023-04-30T05:12:08;10.00;75.00
39045;DHT22;52192;52.002;5.956;2023-04-30T05:14:34;10.00;75.00
39045;DHT22;52192;52.002;5.956;2023-04-30T05:17:01;10.00;75.10
39045;DHT22;52192;52.002;5.956;2023-04-30T05:19:27;10.10;75.10
39045;DHT22;52192;52.002;5.956;2023-04-30T05:21:53;10.10;75.10
39045;DHT22;52192;52.002;5.956;2023-04-30T05:24:18;10.10;75.10
39045;DHT22;52192;52.002;5.956;2023-04-30T05:26:44;10.20;75.20
39045;DHT22;52192;52.002;5.956;2023-04-30T05:29:10;10.20;75.10
39045;DHT22;52192;52.002;5.956;2023-04-30T05:31:36;10.30;75.20
39045;DHT22;52192;52.002;5.956;2023-04-30T05:34:02;10.30;75.20
39045;DHT22;52192;52.002;5.956;2023-04-30T05:36:28;10.40;75.30
39045;DHT22;52192;52.002;5.956;2023-04-30T05:38:54;10.40;75.30
39045;DHT22;52192;52.002;5.956;2023-04-30T05:41:20;10.40;75.30
39045;DHT22;52192;52.002;5.956;2023-04-30T05:43:46;10.50;75.30
39045;DHT22;52192;52.002;5.956;2023-04-30T05:46:12;10.50;75.20
39045;DHT22;52192;52.002;5.956;2023-04-30T05:48:38;10.50;75.20
39045;DHT22;52192;52.002;5.956;2023-04-30T05:51:04;10.60;75.20
39045;DHT22;52192;52.002;5.956;2023-04-30T05:53:31;10.60;75.30
39045;DHT22;52192;52.002;5.956;2023-04-30T05:55:57;10.70;75.30
39045;DHT22;52192;52.002;5.956;2023-04-30T05:58:23;10.70;75.30
39045;DHT22;52192;52.002;5.956;2023-04-30T06:00:50;10.70;75.20
39045;DHT22;52192;52.002;5.956;2023-04-30T06:03:19;10.80;75.10
39045;DHT22;52192;52.002;5.956;2023-04-30T06:05:46;10.90;75.00
39045;DHT22;52192;52.002;5.956;2023-04-30T06:08:12;10.90;75.00
39045;DHT22;52192;52.002;5.956;2023-04-30T06:10:38;11.00;75.00
39045;DHT22;52192;52.002;5.956;2023-04-30T06:13:04;11.00;75.00
39045;DHT22;52192;52.002;5.956;2023-04-30T06:15:30;11.10;74.80
39045;DHT22;52192;52.002;5.956;2023-04-30T06:17:56;11.10;74.70
39045;DHT22;52192;52.002;5.956;2023-04-30T06:20:22;11.20;74.70
39045;DHT22;52192;52.002;5.956;2023-04-30T06:22:48;11.20;74.60
39045;DHT22;52192;52.002;5.956;2023-04-30T06:25:13;11.30;74.50
39045;DHT22;52192;52.002;5.956;2023-04-30T06:27:39;11.40;74.50
39045;DHT22;52192;52.002;5.956;2023-04-30T06:30:06;11.50;74.40
39045;DHT22;52192;52.002;5.956;2023-04-30T06:32:31;11.50;74.20
39045;DHT22;52192;52.002;5.956;2023-04-30T06:34:58;11.60;74.20
39045;DHT22;52192;52.002;5.956;2023-04-30T06:37:23;11.60;74.10
39045;DHT22;52192;52.002;5.956;2023-04-30T06:39:49;11.60;74.20
39045;DHT22;52192;52.002;5.956;2023-04-30T06:42:16;11.70;74.10
39045;DHT22;52192;52.002;5.956;2023-04-30T06:44:41;11.70;74.00
39045;DHT22;52192;52.002;5.956;2023-04-30T06:47:07;11.80;74.00
39045;DHT22;52192;52.002;5.956;2023-04-30T06:49:33;11.80;73.80
39045;DHT22;52192;52.002;5.956;2023-04-30T06:51:59;11.90;73.80
39045;DHT22;52192;52.002;5.956;2023-04-30T06:54:25;11.90;73.60
39045;DHT22;52192;52.002;5.956;2023-04-30T06:56:52;11.90;73.50
39045;DHT22;52192;52.002;5.956;2023-04-30T06:59:18;12.00;73.40
39045;DHT22;52192;52.002;5.956;2023-04-30T07:01:43;12.00;73.30
39045;DHT22;52192;52.002;5.956;2023-04-30T07:04:09;12.10;73.20
39045;DHT22;52192;52.002;5.956;2023-04-30T07:06:35;12.20;73.20
39045;DHT22;52192;52.002;5.956;2023-04-30T07:09:01;12.20;73.10
39045;DHT22;52192;52.002;5.956;2023-04-30T07:11:27;12.30;73.00
39045;DHT22;52192;52.002;5.956;2023-04-30T07:13:52;12.40;72.80
39045;DHT22;52192;52.002;5.956;2023-04-30T07:16:18;12.50;72.70
39045;DHT22;52192;52.002;5.956;2023-04-30T07:18:44;12.60;72.50
39045;DHT22;52192;52.002;5.956;2023-04-30T07:21:13;12.70;72.30
39045;DHT22;52192;52.002;5.956;2023-04-30T07:23:39;12.70;72.10
39045;DHT22;52192;52.002;5.956;2023-04-30T07:26:04;12.70;72.00
39045;DHT22;52192;52.002;5.956;2023-04-30T07:28:30;12.80;72.60
39045;DHT22;52192;52.002;5.956;2023-04-30T07:30:56;12.90;71.90
39045;DHT22;52192;52.002;5.956;2023-04-30T07:33:22;13.00;71.70
39045;DHT22;52192;52.002;5.956;2023-04-30T07:35:47;13.10;71.50
39045;DHT22;52192;52.002;5.956;2023-04-30T07:38:13;13.20;71.40
39045;DHT22;52192;52.002;5.956;2023-04-30T07:40:39;13.20;71.00
39045;DHT22;52192;52.002;5.956;2023-04-30T07:43:04;13.30;70.80
39045;DHT22;52192;52.002;5.956;2023-04-30T07:45:30;13.30;70.60
39045;DHT22;52192;52.002;5.956;2023-04-30T07:47:57;13.40;70.60
39045;DHT22;52192;52.002;5.956;2023-04-30T07:50:23;13.50;70.40
39045;DHT22;52192;52.002;5.956;2023-04-30T07:52:49;13.50;70.20
39045;DHT22;52192;52.002;5.956;2023-04-30T07:55:15;13.60;70.20
39045;DHT22;52192;52.002;5.956;2023-04-30T07:57:40;13.60;70.00
39045;DHT22;52192;52.002;5.956;2023-04-30T08:00:06;13.60;70.00
39045;DHT22;52192;52.002;5.956;2023-04-30T08:02:33;13.70;69.80
39045;DHT22;52192;52.002;5.956;2023-04-30T08:04:58;13.80;69.70
39045;DHT22;52192;52.002;5.956;2023-04-30T08:07:24;13.90;69.50
39045;DHT22;52192;52.002;5.956;2023-04-30T08:09:50;13.90;69.50
39045;DHT22;52192;52.002;5.956;2023-04-30T08:12:16;14.00;69.50
39045;DHT22;52192;52.002;5.956;2023-04-30T08:14:42;14.10;69.50
39045;DHT22;52192;52.002;5.956;2023-04-30T08:17:08;14.20;69.30
39045;DHT22;52192;52.002;5.956;2023-04-30T08:19:33;14.30;69.20
39045;DHT22;52192;52.002;5.956;2023-04-30T08:21:59;14.30;68.90
39045;DHT22;52192;52.002;5.956;2023-04-30T08:24:25;14.30;68.60
39045;DHT22;52192;52.002;5.956;2023-04-30T08:26:51;14.30;68.60
39045;DHT22;52192;52.002;5.956;2023-04-30T08:29:17;14.40;68.60
39045;DHT22;52192;52.002;5.956;2023-04-30T08:31:42;14.50;68.50
39045;DHT22;52192;52.002;5.956;2023-04-30T08:34:08;14.60;68.40
39045;DHT22;52192;52.002;5.956;2023-04-30T08:36:33;14.60;68.10
39045;DHT22;52192;52.002;5.956;2023-04-30T08:38:59;14.70;68.10
39045;DHT22;52192;52.002;5.956;2023-04-30T08:41:31;14.80;68.10
39045;DHT22;52192;52.002;5.956;2023-04-30T08:44:01;14.80;68.00
39045;DHT22;52192;52.002;5.956;2023-04-30T08:46:30;15.00;67.90
39045;DHT22;52192;52.002;5.956;2023-04-30T08:48:56;15.00;67.30
39045;DHT22;52192;52.002;5.956;2023-04-30T08:51:22;15.10;67.30
39045;DHT22;52192;52.002;5.956;2023-04-30T08:53:48;15.20;67.00
39045;DHT22;52192;52.002;5.956;2023-04-30T08:56:15;15.30;66.80
39045;DHT22;52192;52.002;5.956;2023-04-30T08:58:41;15.40;66.50
39045;DHT22;52192;52.002;5.956;2023-04-30T09:01:09;15.40;66.20
39045;DHT22;52192;52.002;5.956;2023-04-30T09:03:36;15.50;66.00
39045;DHT22;52192;52.002;5.956;2023-04-30T09:06:01;15.60;65.50
39045;DHT22;52192;52.002;5.956;2023-04-30T09:08:47;15.60;65.40
39045;DHT22;52192;52.002;5.956;2023-04-30T09:11:20;15.70;65.20
39045;DHT22;52192;52.002;5.956;2023-04-30T09:13:49;15.70;64.90
39045;DHT22;52192;52.002;5.956;2023-04-30T09:16:15;15.80;64.80
39045;DHT22;52192;52.002;5.956;2023-04-30T09:18:41;15.90;64.90
39045;DHT22;52192;52.002;5.956;2023-04-30T09:21:07;16.00;64.30
39045;DHT22;52192;52.002;5.956;2023-04-30T09:23:33;16.10;64.10
39045;DHT22;52192;52.002;5.956;2023-04-30T09:25:59;16.20;64.00
39045;DHT22;52192;52.002;5.956;2023-04-30T09:28:25;16.30;63.80
39045;DHT22;52192;52.002;5.956;2023-04-30T09:30:55;16.40;63.50
39045;DHT22;52192;52.002;5.956;2023-04-30T09:33:21;16.50;63.10
39045;DHT22;52192;52.002;5.956;2023-04-30T09:35:47;16.50;63.30
39045;DHT22;52192;52.002;5.956;2023-04-30T09:38:30;16.50;62.80
39045;DHT22;52192;52.002;5.956;2023-04-30T09:41:00;16.60;62.70
39045;DHT22;52192;52.002;5.956;2023-04-30T09:43:27;16.70;62.80
39045;DHT22;52192;52.002;5.956;2023-04-30T09:45:52;16.80;62.30
39045;DHT22;52192;52.002;5.956;2023-04-30T09:48:22;16.90;62.20
39045;DHT22;52192;52.002;5.956;2023-04-30T09:50:48;17.00;62.00
39045;DHT22;52192;52.002;5.956;2023-04-30T09:53:15;17.10;61.50
39045;DHT22;52192;52.002;5.956;2023-04-30T09:55:48;17.10;61.00
39045;DHT22;52192;52.002;5.956;2023-04-30T09:58:15;17.10;60.70
39045;DHT22;52192;52.002;5.956;2023-04-30T10:00:42;17.10;61.00
39045;DHT22;52192;52.002;5.956;2023-04-30T10:03:10;17.30;61.00
39045;DHT22;52192;52.002;5.956;2023-04-30T10:05:41;17.40;60.70
39045;DHT22;52192;52.002;5.956;2023-04-30T10:08:18;17.40;60.00
39045;DHT22;52192;52.002;5.956;2023-04-30T10:10:49;17.60;60.00
39045;DHT22;52192;52.002;5.956;2023-04-30T10:13:19;17.70;59.90
39045;DHT22;52192;52.002;5.956;2023-04-30T10:15:50;17.90;59.20
39045;DHT22;52192;52.002;5.956;2023-04-30T10:18:28;18.00;59.10
39045;DHT22;52192;52.002;5.956;2023-04-30T10:20:56;18.20;58.50
39045;DHT22;52192;52.002;5.956;2023-04-30T10:23:24;18.30;58.30
39045;DHT22;52192;52.002;5.956;2023-04-30T10:25:50;18.30;57.80
39045;DHT22;52192;52.002;5.956;2023-04-30T10:28:16;18.30;58.10
39045;DHT22;52192;52.002;5.956;2023-04-30T10:30:41;18.50;58.30
39045;DHT22;52192;52.002;5.956;2023-04-30T10:35:48;18.70;57.40
39045;DHT22;52192;52.002;5.956;2023-04-30T10:38:26;18.80;57.40
39045;DHT22;52192;52.002;5.956;2023-04-30T10:40:57;18.90;57.00
39045;DHT22;52192;52.002;5.956;2023-04-30T10:43:24;19.00;57.10
39045;DHT22;52192;52.002;5.956;2023-04-30T10:45:50;19.10;56.70
39045;DHT22;52192;52.002;5.956;2023-04-30T10:48:16;19.10;56.30
39045;DHT22;52192;52.002;5.956;2023-04-30T10:50:59;19.10;56.30
39045;DHT22;52192;52.002;5.956;2023-04-30T10:53:25;19.20;56.50
39045;DHT22;52192;52.002;5.956;2023-04-30T10:56:00;19.20;56.10
39045;DHT22;52192;52.002;5.956;2023-04-30T10:58:35;19.30;56.00
39045;DHT22;52192;52.002;5.956;2023-04-30T11:03:34;19.50;55.70
39045;DHT22;52192;52.002;5.956;2023-04-30T11:06:06;19.70;55.70
39045;DHT22;52192;52.002;5.956;2023-04-30T11:08:32;19.90;55.40
39045;DHT22;52192;52.002;5.956;2023-04-30T11:10:59;20.00;54.90
39045;DHT22;52192;52.002;5.956;2023-04-30T11:13:26;20.10;55.00
39045;DHT22;52192;52.002;5.956;2023-04-30T11:15:52;20.20;54.90
39045;DHT22;52192;52.002;5.956;2023-04-30T11:18:18;20.30;54.60
39045;DHT22;52192;52.002;5.956;2023-04-30T11:20:50;20.20;54.10
39045;DHT22;52192;52.002;5.956;2023-04-30T11:23:21;20.30;53.80
39045;DHT22;52192;52.002;5.956;2023-04-30T11:25:47;20.20;53.40
39045;DHT22;52192;52.002;5.956;2023-04-30T11:28:39;20.20;54.00
39045;DHT22;52192;52.002;5.956;2023-04-30T11:31:15;20.40;54.00
39045;DHT22;52192;52.002;5.956;2023-04-30T11:33:41;20.50;53.70
39045;DHT22;52192;52.002;5.956;2023-04-30T11:36:07;20.60;53.50
39045;DHT22;52192;52.002;5.956;2023-04-30T11:38:36;20.70;53.50
39045;DHT22;52192;52.002;5.956;2023-04-30T11:41:03;20.80;53.40
39045;DHT22;52192;52.002;5.956;2023-04-30T11:43:30;20.90;53.10
39045;DHT22;52192;52.002;5.956;2023-04-30T11:48:35;21.10;52.30
39045;DHT22;52192;52.002;5.956;2023-04-30T11:51:22;21.10;52.10
39045;DHT22;52192;52.002;5.956;2023-04-30T11:53:52;21.20;52.10
39045;DHT22;52192;52.002;5.956;2023-04-30T11:56:18;21.30;52.20
39045;DHT22;52192;52.002;5.956;2023-04-30T11:58:47;21.50;52.10
39045;DHT22;52192;52.002;5.956;2023-04-30T12:01:13;21.70;52.10
39045;DHT22;52192;52.002;5.956;2023-04-30T12:03:45;21.80;51.90
39045;DHT22;52192;52.002;5.956;2023-04-30T12:06:15;21.90;51.40
39045;DHT22;52192;52.002;5.956;2023-04-30T12:08:45;22.00;51.70
39045;DHT22;52192;52.002;5.956;2023-04-30T12:11:26;22.10;51.30
39045;DHT22;52192;52.002;5.956;2023-04-30T12:13:59;22.20;50.50
39045;DHT22;52192;52.002;5.956;2023-04-30T12:16:27;22.20;50.40
39045;DHT22;52192;52.002;5.956;2023-04-30T12:18:53;22.10;50.10
39045;DHT22;52192;52.002;5.956;2023-04-30T12:21:21;22.20;50.30
39045;DHT22;52192;52.002;5.956;2023-04-30T12:23:47;22.30;50.40
39045;DHT22;52192;52.002;5.956;2023-04-30T12:26:13;22.30;50.20
39045;DHT22;52192;52.002;5.956;2023-04-30T12:28:38;22.40;50.70
39045;DHT22;52192;52.002;5.956;2023-04-30T12:31:04;22.50;50.10
39045;DHT22;52192;52.002;5.956;2023-04-30T12:33:30;22.60;49.60
39045;DHT22;52192;52.002;5.956;2023-04-30T12:35:56;22.70;49.90
39045;DHT22;52192;52.002;5.956;2023-04-30T12:38:24;22.90;49.10
39045;DHT22;52192;52.002;5.956;2023-04-30T12:40:50;22.90;48.40
39045;DHT22;52192;52.002;5.956;2023-04-30T12:43:17;22.90;48.60
39045;DHT22;52192;52.002;5.956;2023-04-30T12:45:50;22.90;48.70
39045;DHT22;52192;52.002;5.956;2023-04-30T12:48:24;22.90;48.50
39045;DHT22;52192;52.002;5.956;2023-04-30T12:50:53;22.80;48.40
39045;DHT22;52192;52.002;5.956;2023-04-30T12:53:19;22.90;48.60
39045;DHT22;52192;52.002;5.956;2023-04-30T12:56:11;23.00;48.00
39045;DHT22;52192;52.002;5.956;2023-04-30T12:58:39;23.10;47.40
39045;DHT22;52192;52.002;5.956;2023-04-30T13:01:12;23.10;47.30
39045;DHT22;52192;52.002;5.956;2023-04-30T13:03:38;23.10;46.90
39045;DHT22;52192;52.002;5.956;2023-04-30T13:06:04;23.20;47.00
39045;DHT22;52192;52.002;5.956;2023-04-30T13:08:31;23.30;46.50
39045;DHT22;52192;52.002;5.956;2023-04-30T13:11:06;23.40;46.40
39045;DHT22;52192;52.002;5.956;2023-04-30T13:13:32;23.50;45.80
39045;DHT22;52192;52.002;5.956;2023-04-30T13:15:58;23.60;45.90
39045;DHT22;52192;52.002;5.956;2023-04-30T13:18:24;23.70;45.50
39045;DHT22;52192;52.002;5.956;2023-04-30T13:20:50;23.70;45.70
39045;DHT22;52192;52.002;5.956;2023-04-30T13:23:16;23.80;44.90
39045;DHT22;52192;52.002;5.956;2023-04-30T13:25:42;23.70;45.00
39045;DHT22;52192;52.002;5.956;2023-04-30T13:28:08;23.80;45.20
39045;DHT22;52192;52.002;5.956;2023-04-30T13:30:34;23.90;44.90
39045;DHT22;52192;52.002;5.956;2023-04-30T13:33:00;23.90;45.10
39045;DHT22;52192;52.002;5.956;2023-04-30T13:35:26;24.00;45.10
39045;DHT22;52192;52.002;5.956;2023-04-30T13:37:52;24.10;44.80
39045;DHT22;52192;52.002;5.956;2023-04-30T13:40:19;24.20;44.60
39045;DHT22;52192;52.002;5.956;2023-04-30T13:42:46;24.30;44.70
39045;DHT22;52192;52.002;5.956;2023-04-30T13:45:12;24.40;44.90
39045;DHT22;52192;52.002;5.956;2023-04-30T13:47:38;24.50;44.20
39045;DHT22;52192;52.002;5.956;2023-04-30T13:50:05;24.50;44.40
39045;DHT22;52192;52.002;5.956;2023-04-30T13:52:32;24.70;44.20
39045;DHT22;52192;52.002;5.956;2023-04-30T13:54:57;24.80;44.00
39045;DHT22;52192;52.002;5.956;2023-04-30T13:57:23;24.80;43.60
39045;DHT22;52192;52.002;5.956;2023-04-30T13:59:49;24.80;43.40
39045;DHT22;52192;52.002;5.956;2023-04-30T14:02:15;25.00;43.40
39045;DHT22;52192;52.002;5.956;2023-04-30T14:04:41;25.20;43.20
39045;DHT22;52192;52.002;5.956;2023-04-30T14:07:07;25.30;43.00
39045;DHT22;52192;52.002;5.956;2023-04-30T14:09:34;25.40;42.30
39045;DHT22;52192;52.002;5.956;2023-04-30T14:12:00;25.50;42.40
39045;DHT22;52192;52.002;5.956;2023-04-30T14:14:26;25.50;42.40
39045;DHT22;52192;52.002;5.956;2023-04-30T14:16:52;25.30;42.30
39045;DHT22;52192;52.002;5.956;2023-04-30T14:19:22;25.00;42.50
39045;DHT22;52192;52.002;5.956;2023-04-30T14:21:47;24.90;43.00
39045;DHT22;52192;52.002;5.956;2023-04-30T14:24:13;24.90;42.80
39045;DHT22;52192;52.002;5.956;2023-04-30T14:26:41;25.10;42.60
39045;DHT22;52192;52.002;5.956;2023-04-30T14:29:07;25.30;42.50
39045;DHT22;52192;52.002;5.956;2023-04-30T14:31:33;25.40;42.10
39045;DHT22;52192;52.002;5.956;2023-04-30T14:33:59;25.40;41.70
39045;DHT22;52192;52.002;5.956;2023-04-30T14:36:24;25.40;41.90
39045;DHT22;52192;52.002;5.956;2023-04-30T14:38:52;25.30;41.60
39045;DHT22;52192;52.002;5.956;2023-04-30T14:41:17;25.10;41.70
39045;DHT22;52192;52.002;5.956;2023-04-30T14:43:43;25.00;41.90
39045;DHT22;52192;52.002;5.956;2023-04-30T14:46:09;24.90;41.60
39045;DHT22;52192;52.002;5.956;2023-04-30T14:48:34;24.90;41.70
39045;DHT22;52192;52.002;5.956;2023-04-30T14:51:00;24.90;41.90
39045;DHT22;52192;52.002;5.956;2023-04-30T14:53:26;25.00;41.60
39045;DHT22;52192;52.002;5.956;2023-04-30T14:55:52;25.10;41.70
39045;DHT22;52192;52.002;5.956;2023-04-30T14:58:17;25.10;41.50
39045;DHT22;52192;52.002;5.956;2023-04-30T15:00:44;25.20;41.60
39045;DHT22;52192;52.002;5.956;2023-04-30T15:03:11;25.30;41.70
39045;DHT22;52192;52.002;5.956;2023-04-30T15:05:37;25.20;41.50
39045;DHT22;52192;52.002;5.956;2023-04-30T15:08:02;25.10;41.40
39045;DHT22;52192;52.002;5.956;2023-04-30T15:10:28;25.20;41.60
39045;DHT22;52192;52.002;5.956;2023-04-30T15:12:54;25.20;41.20
39045;DHT22;52192;52.002;5.956;2023-04-30T15:15:20;25.30;41.30
39045;DHT22;52192;52.002;5.956;2023-04-30T15:17:49;25.30;41.00
39045;DHT22;52192;52.002;5.956;2023-04-30T15:20:15;25.10;40.30
39045;DHT22;52192;52.002;5.956;2023-04-30T15:22:40;25.10;40.50
39045;DHT22;52192;52.002;5.956;2023-04-30T15:25:07;25.10;40.60
39045;DHT22;52192;52.002;5.956;2023-04-30T15:27:33;24.90;40.10
39045;DHT22;52192;52.002;5.956;2023-04-30T15:29:59;24.70;40.70
39045;DHT22;52192;52.002;5.956;2023-04-30T15:32:25;24.40;41.10
39045;DHT22;52192;52.002;5.956;2023-04-30T15:34:50;24.30;41.40
39045;DHT22;52192;52.002;5.956;2023-04-30T15:37:16;24.40;41.60
39045;DHT22;52192;52.002;5.956;2023-04-30T15:39:42;24.50;41.40
39045;DHT22;52192;52.002;5.956;2023-04-30T15:42:07;24.50;41.40
39045;DHT22;52192;52.002;5.956;2023-04-30T15:44:33;24.40;41.30
39045;DHT22;52192;52.002;5.956;2023-04-30T15:47:00;24.50;41.40
39045;DHT22;52192;52.002;5.956;2023-04-30T15:49:26;24.70;41.30
39045;DHT22;52192;52.002;5.956;2023-04-30T15:51:52;24.80;41.00
39045;DHT22;52192;52.002;5.956;2023-04-30T15:54:17;24.60;40.90
39045;DHT22;52192;52.002;5.956;2023-04-30T15:56:43;24.30;41.20